sensor_id;sensor_type;location;lat;lon;timestamp;P1;durP1;ratioP1;P2;durP2;ratioP2
76626;SDS011;65519;53.230;10.390;2023-05-07T00:00:01;17.42;;;8.02;;
76626;SDS011;65519;53.230;10.390;2023-05-07T00:02:27;17.23;;;8.35;;
76626;SDS011;65519;53.230;10.390;2023-05-07T00:04:53;16.98;;;8.25;;
76626;SDS011;65519;53.230;10.390;2023-05-07T00:07:18;15.43;;;7.75;;
76626;SDS011;65519;53.230;10.390;2023-05-07T00:09:44;15.80;;;8.10;;
76626;SDS011;65519;53.230;10.390;2023-05-07T00:12:09;13.52;;;7.72;;
76626;SDS011;65519;53.230;10.390;2023-05-07T00:14:35;14.30;;;7.30;;
76626;SDS011;65519;53.230;10.390;2023-05-07T00:17:00;17.13;;;8.90;;
76626;SDS011;65519;53.230;10.390;2023-05-07T00:19:25;12.98;;;7.60;;
76626;SDS011;65519;53.230;10.390;2023-05-07T00:21:51;14.68;;;7.80;;
76626;SDS011;65519;53.230;10.390;2023-05-07T00:24:18;15.60;;;8.18;;
76626;SDS011;65519;53.230;10.390;2023-05-07T00:26:43;13.60;;;7.68;;
76626;SDS011;65519;53.230;10.390;2023-05-07T00:29:09;15.00;;;8.43;;
76626;SDS011;65519;53.230;10.390;2023-05-07T00:31:34;13.65;;;7.72;;
76626;SDS011;65519;53.230;10.390;2023-05-07T00:34:00;11.15;;;6.80;;
76626;SDS011;65519;53.230;10.390;2023-05-07T00:36:25;15.05;;;8.48;;
76626;SDS011;65519;53.230;10.390;2023-05-07T00:38:51;13.10;;;7.50;;
76626;SDS011;65519;53.230;10.390;2023-05-07T00:41:16;13.80;;;7.38;;
76626;SDS011;65519;53.230;10.390;2023-05-07T00:43:41;15.90;;;7.78;;
76626;SDS011;65519;53.230;10.390;2023-05-07T00:46:07;16.58;;;8.65;;
76626;SDS011;65519;53.230;10.390;2023-05-07T00:48:32;17.95;;;8.30;;
76626;SDS011;65519;53.230;10.390;2023-05-07T00:50:58;17.60;;;8.90;;
76626;SDS011;65519;53.230;10.390;2023-05-07T00:53:23;16.02;;;8.35;;
76626;SDS011;65519;53.230;10.390;2023-05-07T00:55:49;18.05;;;9.30;;
76626;SDS011;65519;53.230;10.390;2023-05-07T00:58:16;14.82;;;7.95;;
76626;SDS011;65519;53.230;10.390;2023-05-07T01:00:42;15.05;;;8.65;;
76626;SDS011;65519;53.230;10.390;2023-05-07T01:03:07;15.60;;;8.27;;
76626;SDS011;65519;53.230;10.390;2023-05-07T01:05:33;18.35;;;8.90;;
76626;SDS011;65519;53.230;10.390;2023-05-07T01:07:58;12.77;;;7.68;;
76626;SDS011;65519;53.230;10.390;2023-05-07T01:10:25;14.27;;;7.88;;
76626;SDS011;65519;53.230;10.390;2023-05-07T01:12:51;15.27;;;7.57;;
76626;SDS011;65519;53.230;10.390;2023-05-07T01:15:18;14.48;;;8.55;;
76626;SDS011;65519;53.230;10.390;2023-05-07T01:17:43;13.50;;;7.72;;
76626;SDS011;65519;53.230;10.390;2023-05-07T01:20:09;15.23;;;8.23;;
76626;SDS011;65519;53.230;10.390;2023-05-07T01:22:36;14.82;;;8.20;;
76626;SDS011;65519;53.230;10.390;2023-05-07T01:25:03;16.73;;;9.02;;
76626;SDS011;65519;53.230;10.390;2023-05-07T01:27:30;15.05;;;8.05;;
76626;SDS011;65519;53.230;10.390;2023-05-07T01:29:55;17.17;;;8.35;;
76626;SDS011;65519;53.230;10.390;2023-05-07T01:32:21;14.83;;;8.10;;
76626;SDS011;65519;53.230;10.390;2023-05-07T01:35:10;13.70;;;7.82;;
76626;SDS011;65519;53.230;10.390;2023-05-07T01:37:39;16.17;;;8.25;;
76626;SDS011;65519;53.230;10.390;2023-05-07T01:40:05;13.27;;;7.80;;
76626;SDS011;65519;53.230;10.390;2023-05-07T01:42:32;14.35;;;8.10;;
76626;SDS011;65519;53.230;10.390;2023-05-07T01:44:57;14.05;;;8.73;;
76626;SDS011;65519;53.230;10.390;2023-05-07T01:47:23;11.32;;;7.40;;
76626;SDS011;65519;53.230;10.390;2023-05-07T01:49:49;15.48;;;8.38;;
76626;SDS011;65519;53.230;10.390;2023-05-07T01:52:15;11.77;;;7.60;;
76626;SDS011;65519;53.230;10.390;2023-05-07T01:54:40;14.60;;;8.15;;
76626;SDS011;65519;53.230;10.390;2023-05-07T01:57:06;15.38;;;7.70;;
76626;SDS011;65519;53.230;10.390;2023-05-07T01:59:31;16.85;;;8.65;;
76626;SDS011;65519;53.230;10.390;2023-05-07T02:01:56;14.75;;;7.25;;
76626;SDS011;65519;53.230;10.390;2023-05-07T02:04:22;16.63;;;8.70;;
76626;SDS011;65519;53.230;10.390;2023-05-07T02:06:47;15.30;;;8.15;;
76626;SDS011;65519;53.230;10.390;2023-05-07T02:09:13;14.05;;;8.27;;
76626;SDS011;65519;53.230;10.390;2023-05-07T02:11:39;17.70;;;9.05;;
76626;SDS011;65519;53.230;10.390;2023-05-07T02:14:04;15.43;;;8.43;;
76626;SDS011;65519;53.230;10.390;2023-05-07T02:16:30;18.27;;;9.00;;
76626;SDS011;65519;53.230;10.390;2023-05-07T02:18:55;17.42;;;9.43;;
76626;SDS011;65519;53.230;10.390;2023-05-07T02:21:21;21.17;;;9.48;;
76626;SDS011;65519;53.230;10.390;2023-05-07T02:23:46;21.23;;;10.25;;
76626;SDS011;65519;53.230;10.390;2023-05-07T02:26:12;21.07;;;10.07;;
76626;SDS011;65519;53.230;10.390;2023-05-07T02:28:37;19.80;;;10.32;;
76626;SDS011;65519;53.230;10.390;2023-05-07T02:31:03;18.67;;;9.30;;
76626;SDS011;65519;53.230;10.390;2023-05-07T02:33:29;18.23;;;9.35;;
76626;SDS011;65519;53.230;10.390;2023-05-07T02:35:55;16.23;;;8.60;;
76626;SDS011;65519;53.230;10.390;2023-05-07T02:38:21;16.58;;;8.07;;
76626;SDS011;65519;53.230;10.390;2023-05-07T02:40:47;19.45;;;9.48;;
76626;SDS011;65519;53.230;10.390;2023-05-07T02:43:12;16.70;;;8.70;;
76626;SDS011;65519;53.230;10.390;2023-05-07T02:45:38;18.50;;;8.90;;
76626;SDS011;65519;53.230;10.390;2023-05-07T02:48:04;18.80;;;9.90;;
76626;SDS011;65519;53.230;10.390;2023-05-07T02:50:31;15.43;;;8.40;;
76626;SDS011;65519;53.230;10.390;2023-05-07T02:52:57;17.05;;;8.98;;
76626;SDS011;65519;53.230;10.390;2023-05-07T02:55:23;16.30;;;9.10;;
76626;SDS011;65519;53.230;10.390;2023-05-07T02:57:48;20.35;;;9.45;;
76626;SDS011;65519;53.230;10.390;2023-05-07T03:00:17;18.95;;;8.52;;
76626;SDS011;65519;53.230;10.390;2023-05-07T03:02:44;18.02;;;8.98;;
76626;SDS011;65519;53.230;10.390;2023-05-07T03:05:10;18.17;;;8.98;;
76626;SDS011;65519;53.230;10.390;2023-05-07T03:07:36;17.00;;;8.68;;
76626;SDS011;65519;53.230;10.390;2023-05-07T03:10:02;17.35;;;8.90;;
76626;SDS011;65519;53.230;10.390;2023-05-07T03:12:28;19.88;;;9.88;;
76626;SDS011;65519;53.230;10.390;2023-05-07T03:14:54;19.98;;;9.07;;
76626;SDS011;65519;53.230;10.390;2023-05-07T03:17:20;15.88;;;9.13;;
76626;SDS011;65519;53.230;10.390;2023-05-07T03:19:45;18.85;;;9.65;;
76626;SDS011;65519;53.230;10.390;2023-05-07T03:22:11;19.13;;;9.40;;
76626;SDS011;65519;53.230;10.390;2023-05-07T03:24:36;18.88;;;9.88;;
76626;SDS011;65519;53.230;10.390;2023-05-07T03:27:01;17.42;;;9.30;;
76626;SDS011;65519;53.230;10.390;2023-05-07T03:29:27;16.92;;;9.60;;
76626;SDS011;65519;53.230;10.390;2023-05-07T03:31:52;17.30;;;8.73;;
76626;SDS011;65519;53.230;10.390;2023-05-07T03:34:18;19.40;;;8.68;;
76626;SDS011;65519;53.230;10.390;2023-05-07T03:36:49;18.77;;;8.70;;
76626;SDS011;65519;53.230;10.390;2023-05-07T03:39:15;19.00;;;9.45;;
76626;SDS011;65519;53.230;10.390;2023-05-07T03:41:40;17.20;;;8.32;;
76626;SDS011;65519;53.230;10.390;2023-05-07T03:44:06;18.30;;;9.60;;
76626;SDS011;65519;53.230;10.390;2023-05-07T03:46:31;18.85;;;9.45;;
76626;SDS011;65519;53.230;10.390;2023-05-07T03:48:57;17.80;;;8.98;;
76626;SDS011;65519;53.230;10.390;2023-05-07T03:51:23;15.80;;;8.23;;
76626;SDS011;65519;53.230;10.390;2023-05-07T03:53:48;19.27;;;9.63;;
76626;SDS011;65519;53.230;10.390;2023-05-07T03:56:14;18.33;;;9.35;;
76626;SDS011;65519;53.230;10.390;2023-05-07T03:58:39;19.42;;;10.32;;
76626;SDS011;65519;53.230;10.390;2023-05-07T04:01:04;19.45;;;9.98;;
76626;SDS011;65519;53.230;10.390;2023-05-07T04:03:30;18.85;;;9.25;;
76626;SDS011;65519;53.230;10.390;2023-05-07T04:05:55;18.17;;;9.90;;
76626;SDS011;65519;53.230;10.390;2023-05-07T04:08:21;18.33;;;10.03;;
76626;SDS011;65519;53.230;10.390;2023-05-07T04:10:46;16.33;;;9.05;;
76626;SDS011;65519;53.230;10.390;2023-05-07T04:13:11;19.25;;;9.88;;
76626;SDS011;65519;53.230;10.390;2023-05-07T04:15:37;16.92;;;9.32;;
76626;SDS011;65519;53.230;10.390;2023-05-07T04:18:02;15.27;;;9.02;;
76626;SDS011;65519;53.230;10.390;2023-05-07T04:20:27;20.80;;;10.02;;
76626;SDS011;65519;53.230;10.390;2023-05-07T04:22:53;16.90;;;9.37;;
76626;SDS011;65519;53.230;10.390;2023-05-07T04:25:18;21.52;;;10.35;;
76626;SDS011;65519;53.230;10.390;2023-05-07T04:27:43;18.00;;;8.70;;
76626;SDS011;65519;53.230;10.390;2023-05-07T04:30:09;25.87;;;11.23;;
76626;SDS011;65519;53.230;10.390;2023-05-07T04:32:35;24.38;;;10.55;;
76626;SDS011;65519;53.230;10.390;2023-05-07T04:35:02;20.27;;;9.95;;
76626;SDS011;65519;53.230;10.390;2023-05-07T04:37:27;18.50;;;9.55;;
76626;SDS011;65519;53.230;10.390;2023-05-07T04:39:53;21.53;;;10.07;;
76626;SDS011;65519;53.230;10.390;2023-05-07T04:42:18;16.15;;;8.70;;
76626;SDS011;65519;53.230;10.390;2023-05-07T04:44:44;20.42;;;9.63;;
76626;SDS011;65519;53.230;10.390;2023-05-07T04:47:10;19.00;;;9.40;;
76626;SDS011;65519;53.230;10.390;2023-05-07T04:49:36;18.88;;;9.25;;
76626;SDS011;65519;53.230;10.390;2023-05-07T04:52:02;17.52;;;9.40;;
76626;SDS011;65519;53.230;10.390;2023-05-07T04:54:28;17.02;;;8.98;;
76626;SDS011;65519;53.230;10.390;2023-05-07T04:56:54;18.15;;;10.15;;
76626;SDS011;65519;53.230;10.390;2023-05-07T04:59:19;24.50;;;10.65;;
76626;SDS011;65519;53.230;10.390;2023-05-07T05:01:44;18.73;;;9.13;;
76626;SDS011;65519;53.230;10.390;2023-05-07T05:04:10;18.65;;;10.02;;
76626;SDS011;65519;53.230;10.390;2023-05-07T05:06:35;21.17;;;9.70;;
76626;SDS011;65519;53.230;10.390;2023-05-07T05:09:00;18.03;;;9.30;;
76626;SDS011;65519;53.230;10.390;2023-05-07T05:11:26;19.83;;;9.25;;
76626;SDS011;65519;53.230;10.390;2023-05-07T05:13:52;16.33;;;8.20;;
76626;SDS011;65519;53.230;10.390;2023-05-07T05:16:17;13.23;;;8.38;;
76626;SDS011;65519;53.230;10.390;2023-05-07T05:18:42;17.48;;;8.90;;
76626;SDS011;65519;53.230;10.390;2023-05-07T05:21:08;18.20;;;9.02;;
76626;SDS011;65519;53.230;10.390;2023-05-07T05:23:33;21.08;;;10.70;;
76626;SDS011;65519;53.230;10.390;2023-05-07T05:25:58;18.17;;;9.93;;
76626;SDS011;65519;53.230;10.390;2023-05-07T05:28:24;19.35;;;9.88;;
76626;SDS011;65519;53.230;10.390;2023-05-07T05:30:50;36.05;;;16.23;;
76626;SDS011;65519;53.230;10.390;2023-05-07T05:33:15;17.38;;;8.73;;
76626;SDS011;65519;53.230;10.390;2023-05-07T05:35:41;15.95;;;8.63;;
76626;SDS011;65519;53.230;10.390;2023-05-07T05:38:07;13.90;;;7.50;;
76626;SDS011;65519;53.230;10.390;2023-05-07T05:40:32;18.05;;;8.82;;
76626;SDS011;65519;53.230;10.390;2023-05-07T05:42:58;16.70;;;8.40;;
76626;SDS011;65519;53.230;10.390;2023-05-07T05:45:24;17.30;;;9.10;;
76626;SDS011;65519;53.230;10.390;2023-05-07T05:47:49;17.08;;;9.13;;
76626;SDS011;65519;53.230;10.390;2023-05-07T05:50:15;15.40;;;7.85;;
76626;SDS011;65519;53.230;10.390;2023-05-07T05:52:40;17.58;;;8.95;;
76626;SDS011;65519;53.230;10.390;2023-05-07T05:55:07;19.05;;;9.38;;
76626;SDS011;65519;53.230;10.390;2023-05-07T05:57:33;20.77;;;9.43;;
76626;SDS011;65519;53.230;10.390;2023-05-07T05:59:58;18.60;;;7.88;;
76626;SDS011;65519;53.230;10.390;2023-05-07T06:02:23;17.55;;;8.52;;
76626;SDS011;65519;53.230;10.390;2023-05-07T06:04:49;15.75;;;9.27;;
76626;SDS011;65519;53.230;10.390;2023-05-07T06:07:14;18.23;;;8.60;;
76626;SDS011;65519;53.230;10.390;2023-05-07T06:09:40;16.67;;;7.57;;
76626;SDS011;65519;53.230;10.390;2023-05-07T06:12:05;14.27;;;7.70;;
76626;SDS011;65519;53.230;10.390;2023-05-07T06:14:31;17.02;;;8.18;;
76626;SDS011;65519;53.230;10.390;2023-05-07T06:16:56;17.02;;;8.90;;
76626;SDS011;65519;53.230;10.390;2023-05-07T06:19:22;18.27;;;8.73;;
76626;SDS011;65519;53.230;10.390;2023-05-07T06:21:49;18.17;;;8.88;;
76626;SDS011;65519;53.230;10.390;2023-05-07T06:24:14;16.58;;;8.25;;
76626;SDS011;65519;53.230;10.390;2023-05-07T06:26:40;17.57;;;7.93;;
76626;SDS011;65519;53.230;10.390;2023-05-07T06:29:05;20.10;;;10.15;;
76626;SDS011;65519;53.230;10.390;2023-05-07T06:31:31;14.93;;;7.28;;
76626;SDS011;65519;53.230;10.390;2023-05-07T06:33:57;16.70;;;8.55;;
76626;SDS011;65519;53.230;10.390;2023-05-07T06:36:22;17.40;;;9.23;;
76626;SDS011;65519;53.230;10.390;2023-05-07T06:38:48;25.50;;;10.90;;
76626;SDS011;65519;53.230;10.390;2023-05-07T06:41:13;18.60;;;10.18;;
76626;SDS011;65519;53.230;10.390;2023-05-07T06:43:38;22.80;;;12.20;;
76626;SDS011;65519;53.230;10.390;2023-05-07T06:46:04;16.92;;;8.38;;
76626;SDS011;65519;53.230;10.390;2023-05-07T06:48:30;14.25;;;6.82;;
76626;SDS011;65519;53.230;10.390;2023-05-07T06:50:55;13.38;;;7.72;;
76626;SDS011;65519;53.230;10.390;2023-05-07T06:53:22;15.88;;;8.07;;
76626;SDS011;65519;53.230;10.390;2023-05-07T06:55:48;20.50;;;9.40;;
76626;SDS011;65519;53.230;10.390;2023-05-07T06:58:14;14.57;;;7.88;;
76626;SDS011;65519;53.230;10.390;2023-05-07T07:00:39;18.38;;;7.93;;
76626;SDS011;65519;53.230;10.390;2023-05-07T07:03:05;16.30;;;8.13;;
76626;SDS011;65519;53.230;10.390;2023-05-07T07:05:31;14.35;;;8.07;;
76626;SDS011;65519;53.230;10.390;2023-05-07T07:07:56;14.77;;;7.95;;
76626;SDS011;65519;53.230;10.390;2023-05-07T07:10:22;17.38;;;8.00;;
76626;SDS011;65519;53.230;10.390;2023-05-07T07:12:48;15.20;;;7.15;;
76626;SDS011;65519;53.230;10.390;2023-05-07T07:15:14;14.90;;;6.93;;
76626;SDS011;65519;53.230;10.390;2023-05-07T07:17:40;14.48;;;7.95;;
76626;SDS011;65519;53.230;10.390;2023-05-07T07:20:05;14.02;;;7.97;;
76626;SDS011;65519;53.230;10.390;2023-05-07T07:22:31;12.60;;;7.47;;
76626;SDS011;65519;53.230;10.390;2023-05-07T07:24:57;14.93;;;8.30;;
76626;SDS011;65519;53.230;10.390;2023-05-07T07:27:22;15.18;;;8.40;;
76626;SDS011;65519;53.230;10.390;2023-05-07T07:29:47;14.77;;;8.73;;
76626;SDS011;65519;53.230;10.390;2023-05-07T07:32:13;15.60;;;7.97;;
76626;SDS011;65519;53.230;10.390;2023-05-07T07:34:38;17.60;;;8.88;;
76626;SDS011;65519;53.230;10.390;2023-05-07T07:37:04;18.02;;;8.82;;
76626;SDS011;65519;53.230;10.390;2023-05-07T07:39:34;14.75;;;7.50;;
76626;SDS011;65519;53.230;10.390;2023-05-07T07:41:59;15.07;;;7.72;;
76626;SDS011;65519;53.230;10.390;2023-05-07T07:44:27;17.23;;;8.68;;
76626;SDS011;65519;53.230;10.390;2023-05-07T07:46:53;14.82;;;8.90;;
76626;SDS011;65519;53.230;10.390;2023-05-07T07:49:19;15.75;;;8.05;;
76626;SDS011;65519;53.230;10.390;2023-05-07T07:51:44;16.83;;;8.05;;
76626;SDS011;65519;53.230;10.390;2023-05-07T07:54:09;11.95;;;6.65;;
76626;SDS011;65519;53.230;10.390;2023-05-07T07:56:35;13.25;;;6.93;;
76626;SDS011;65519;53.230;10.390;2023-05-07T07:59:00;11.68;;;6.82;;
76626;SDS011;65519;53.230;10.390;2023-05-07T08:01:26;13.63;;;7.35;;
76626;SDS011;65519;53.230;10.390;2023-05-07T08:03:52;15.68;;;7.63;;
76626;SDS011;65519;53.230;10.390;2023-05-07T08:06:18;13.77;;;7.43;;
76626;SDS011;65519;53.230;10.390;2023-05-07T08:08:43;12.55;;;7.05;;
76626;SDS011;65519;53.230;10.390;2023-05-07T08:11:09;14.00;;;7.93;;
76626;SDS011;65519;53.230;10.390;2023-05-07T08:13:35;12.02;;;7.72;;
76626;SDS011;65519;53.230;10.390;2023-05-07T08:16:01;14.57;;;7.50;;
76626;SDS011;65519;53.230;10.390;2023-05-07T08:18:27;14.07;;;6.85;;
76626;SDS011;65519;53.230;10.390;2023-05-07T08:20:54;13.90;;;6.88;;
76626;SDS011;65519;53.230;10.390;2023-05-07T08:23:19;15.65;;;7.50;;
76626;SDS011;65519;53.230;10.390;2023-05-07T08:25:45;14.07;;;7.28;;
76626;SDS011;65519;53.230;10.390;2023-05-07T08:28:10;14.48;;;7.80;;
76626;SDS011;65519;53.230;10.390;2023-05-07T08:30:36;12.18;;;7.65;;
76626;SDS011;65519;53.230;10.390;2023-05-07T08:33:01;13.25;;;7.68;;
76626;SDS011;65519;53.230;10.390;2023-05-07T08:35:27;15.45;;;8.98;;
76626;SDS011;65519;53.230;10.390;2023-05-07T08:37:52;15.48;;;7.78;;
76626;SDS011;65519;53.230;10.390;2023-05-07T08:40:18;12.68;;;7.72;;
76626;SDS011;65519;53.230;10.390;2023-05-07T08:42:44;11.23;;;7.35;;
76626;SDS011;65519;53.230;10.390;2023-05-07T08:45:10;13.23;;;6.95;;
76626;SDS011;65519;53.230;10.390;2023-05-07T08:47:50;14.05;;;7.78;;
76626;SDS011;65519;53.230;10.390;2023-05-07T08:50:17;15.50;;;8.07;;
76626;SDS011;65519;53.230;10.390;2023-05-07T08:52:43;12.32;;;7.22;;
76626;SDS011;65519;53.230;10.390;2023-05-07T08:55:08;12.90;;;7.65;;
76626;SDS011;65519;53.230;10.390;2023-05-07T08:57:35;14.20;;;8.30;;
76626;SDS011;65519;53.230;10.390;2023-05-07T09:00:01;13.93;;;8.20;;
76626;SDS011;65519;53.230;10.390;2023-05-07T09:02:28;13.98;;;8.25;;
76626;SDS011;65519;53.230;10.390;2023-05-07T09:04:53;15.55;;;8.20;;
76626;SDS011;65519;53.230;10.390;2023-05-07T09:07:19;12.55;;;8.15;;
76626;SDS011;65519;53.230;10.390;2023-05-07T09:09:45;15.98;;;8.57;;
76626;SDS011;65519;53.230;10.390;2023-05-07T09:12:11;19.23;;;10.73;;
76626;SDS011;65519;53.230;10.390;2023-05-07T09:14:36;47.90;;;21.25;;
76626;SDS011;65519;53.230;10.390;2023-05-07T09:17:02;32.25;;;15.00;;
76626;SDS011;65519;53.230;10.390;2023-05-07T09:19:28;15.32;;;8.60;;
76626;SDS011;65519;53.230;10.390;2023-05-07T09:22:03;16.92;;;8.68;;
76626;SDS011;65519;53.230;10.390;2023-05-07T09:24:31;16.23;;;8.93;;
76626;SDS011;65519;53.230;10.390;2023-05-07T09:27:03;15.60;;;7.75;;
76626;SDS011;65519;53.230;10.390;2023-05-07T09:29:30;15.32;;;7.65;;
76626;SDS011;65519;53.230;10.390;2023-05-07T09:32:00;15.05;;;8.40;;
76626;SDS011;65519;53.230;10.390;2023-05-07T09:34:27;17.95;;;9.65;;
76626;SDS011;65519;53.230;10.390;2023-05-07T09:36:53;14.45;;;9.32;;
76626;SDS011;65519;53.230;10.390;2023-05-07T09:39:19;16.98;;;8.55;;
76626;SDS011;65519;53.230;10.390;2023-05-07T09:41:45;20.63;;;9.68;;
76626;SDS011;65519;53.230;10.390;2023-05-07T09:44:14;15.65;;;9.25;;
76626;SDS011;65519;53.230;10.390;2023-05-07T09:46:42;16.63;;;8.00;;
76626;SDS011;65519;53.230;10.390;2023-05-07T09:49:11;15.13;;;7.90;;
76626;SDS011;65519;53.230;10.390;2023-05-07T09:51:59;13.95;;;7.95;;
76626;SDS011;65519;53.230;10.390;2023-05-07T09:54:26;18.08;;;8.43;;
76626;SDS011;65519;53.230;10.390;2023-05-07T09:56:56;12.93;;;8.07;;
76626;SDS011;65519;53.230;10.390;2023-05-07T09:59:22;14.20;;;8.95;;
76626;SDS011;65519;53.230;10.390;2023-05-07T10:01:49;15.38;;;8.82;;
76626;SDS011;65519;53.230;10.390;2023-05-07T10:06:43;15.23;;;8.32;;
76626;SDS011;65519;53.230;10.390;2023-05-07T10:09:09;16.67;;;8.55;;
76626;SDS011;65519;53.230;10.390;2023-05-07T10:11:36;15.25;;;8.77;;
76626;SDS011;65519;53.230;10.390;2023-05-07T10:14:02;14.32;;;8.63;;
76626;SDS011;65519;53.230;10.390;2023-05-07T10:16:31;14.23;;;7.93;;
76626;SDS011;65519;53.230;10.390;2023-05-07T10:18:58;18.65;;;10.63;;
76626;SDS011;65519;53.230;10.390;2023-05-07T10:21:24;15.60;;;8.23;;
76626;SDS011;65519;53.230;10.390;2023-05-07T10:24:26;13.95;;;8.32;;
76626;SDS011;65519;53.230;10.390;2023-05-07T10:26:51;11.68;;;7.32;;
76626;SDS011;65519;53.230;10.390;2023-05-07T10:34:19;20.77;;;10.83;;
76626;SDS011;65519;53.230;10.390;2023-05-07T10:36:49;15.77;;;9.02;;
76626;SDS011;65519;53.230;10.390;2023-05-07T10:39:17;16.92;;;9.45;;
76626;SDS011;65519;53.230;10.390;2023-05-07T10:41:42;12.88;;;8.02;;
76626;SDS011;65519;53.230;10.390;2023-05-07T10:44:08;14.00;;;8.13;;
76626;SDS011;65519;53.230;10.390;2023-05-07T10:46:33;14.68;;;8.50;;
76626;SDS011;65519;53.230;10.390;2023-05-07T10:51:25;12.52;;;7.75;;
76626;SDS011;65519;53.230;10.390;2023-05-07T10:56:42;13.57;;;7.50;;
76626;SDS011;65519;53.230;10.390;2023-05-07T11:04:22;12.18;;;7.38;;
76626;SDS011;65519;53.230;10.390;2023-05-07T11:13:03;14.15;;;7.10;;
76626;SDS011;65519;53.230;10.390;2023-05-07T11:15:04;12.75;;;7.22;;
76626;SDS011;65519;53.230;10.390;2023-05-07T11:17:33;14.43;;;7.82;;
76626;SDS011;65519;53.230;10.390;2023-05-07T11:20:00;11.18;;;6.70;;
76626;SDS011;65519;53.230;10.390;2023-05-07T11:24:55;10.88;;;6.60;;
76626;SDS011;65519;53.230;10.390;2023-05-07T11:27:23;10.32;;;6.70;;
76626;SDS011;65519;53.230;10.390;2023-05-07T11:29:49;13.88;;;8.20;;
76626;SDS011;65519;53.230;10.390;2023-05-07T11:32:15;24.55;;;11.70;;
76626;SDS011;65519;53.230;10.390;2023-05-07T11:34:47;14.63;;;9.30;;
76626;SDS011;65519;53.230;10.390;2023-05-07T11:37:16;9.73;;;6.43;;
76626;SDS011;65519;53.230;10.390;2023-05-07T11:39:42;9.38;;;6.15;;
76626;SDS011;65519;53.230;10.390;2023-05-07T11:42:24;9.85;;;5.93;;
76626;SDS011;65519;53.230;10.390;2023-05-07T11:44:53;12.02;;;6.18;;
76626;SDS011;65519;53.230;10.390;2023-05-07T11:47:19;11.25;;;6.68;;
76626;SDS011;65519;53.230;10.390;2023-05-07T11:49:47;8.95;;;5.78;;
76626;SDS011;65519;53.230;10.390;2023-05-07T11:52:13;9.45;;;5.72;;
76626;SDS011;65519;53.230;10.390;2023-05-07T11:54:39;9.75;;;5.85;;
76626;SDS011;65519;53.230;10.390;2023-05-07T11:57:05;10.27;;;5.78;;
76626;SDS011;65519;53.230;10.390;2023-05-07T11:59:41;8.60;;;5.95;;
76626;SDS011;65519;53.230;10.390;2023-05-07T12:04:32;9.90;;;5.63;;
76626;SDS011;65519;53.230;10.390;2023-05-07T12:06:57;14.07;;;7.18;;
76626;SDS011;65519;53.230;10.390;2023-05-07T12:09:23;10.15;;;6.28;;
76626;SDS011;65519;53.230;10.390;2023-05-07T12:11:48;8.98;;;5.38;;
76626;SDS011;65519;53.230;10.390;2023-05-07T12:14:14;10.02;;;5.80;;
76626;SDS011;65519;53.230;10.390;2023-05-07T12:16:42;9.55;;;6.00;;
76626;SDS011;65519;53.230;10.390;2023-05-07T12:19:08;11.20;;;5.97;;
76626;SDS011;65519;53.230;10.390;2023-05-07T12:21:37;8.48;;;5.32;;
76626;SDS011;65519;53.230;10.390;2023-05-07T12:24:03;8.05;;;4.88;;
76626;SDS011;65519;53.230;10.390;2023-05-07T12:26:29;8.68;;;5.30;;
76626;SDS011;65519;53.230;10.390;2023-05-07T12:28:54;8.77;;;5.55;;
76626;SDS011;65519;53.230;10.390;2023-05-07T12:31:20;8.77;;;5.20;;
76626;SDS011;65519;53.230;10.390;2023-05-07T12:33:45;11.15;;;5.60;;
76626;SDS011;65519;53.230;10.390;2023-05-07T12:36:12;9.75;;;5.78;;
76626;SDS011;65519;53.230;10.390;2023-05-07T12:38:38;7.47;;;5.30;;
76626;SDS011;65519;53.230;10.390;2023-05-07T12:41:05;7.22;;;5.10;;
76626;SDS011;65519;53.230;10.390;2023-05-07T12:43:32;6.50;;;4.35;;
76626;SDS011;65519;53.230;10.390;2023-05-07T12:46:00;19.50;;;9.32;;
76626;SDS011;65519;53.230;10.390;2023-05-07T12:48:27;8.48;;;5.03;;
76626;SDS011;65519;53.230;10.390;2023-05-07T12:50:53;9.30;;;5.82;;
76626;SDS011;65519;53.230;10.390;2023-05-07T12:53:20;7.43;;;4.53;;
76626;SDS011;65519;53.230;10.390;2023-05-07T12:55:48;11.60;;;6.82;;
76626;SDS011;65519;53.230;10.390;2023-05-07T13:00:41;8.80;;;5.10;;
76626;SDS011;65519;53.230;10.390;2023-05-07T13:03:08;8.70;;;4.68;;
76626;SDS011;65519;53.230;10.390;2023-05-07T13:05:33;8.00;;;4.50;;
76626;SDS011;65519;53.230;10.390;2023-05-07T13:08:00;7.20;;;4.20;;
76626;SDS011;65519;53.230;10.390;2023-05-07T13:10:26;6.47;;;4.00;;
76626;SDS011;65519;53.230;10.390;2023-05-07T13:12:52;6.38;;;4.15;;
76626;SDS011;65519;53.230;10.390;2023-05-07T13:15:17;8.02;;;4.65;;
76626;SDS011;65519;53.230;10.390;2023-05-07T13:17:43;7.47;;;4.72;;
76626;SDS011;65519;53.230;10.390;2023-05-07T13:20:09;6.75;;;4.47;;
76626;SDS011;65519;53.230;10.390;2023-05-07T13:22:36;5.63;;;4.00;;
76626;SDS011;65519;53.230;10.390;2023-05-07T13:25:01;6.28;;;3.80;;
76626;SDS011;65519;53.230;10.390;2023-05-07T13:27:27;5.87;;;4.03;;
76626;SDS011;65519;53.230;10.390;2023-05-07T13:29:52;5.45;;;3.58;;
76626;SDS011;65519;53.230;10.390;2023-05-07T13:32:17;7.15;;;3.72;;
76626;SDS011;65519;53.230;10.390;2023-05-07T13:34:43;5.47;;;3.42;;
76626;SDS011;65519;53.230;10.390;2023-05-07T13:37:09;6.28;;;4.13;;
76626;SDS011;65519;53.230;10.390;2023-05-07T13:39:34;5.57;;;3.83;;
76626;SDS011;65519;53.230;10.390;2023-05-07T13:41:59;4.93;;;3.17;;
76626;SDS011;65519;53.230;10.390;2023-05-07T13:44:25;4.75;;;3.05;;
76626;SDS011;65519;53.230;10.390;2023-05-07T13:46:51;5.00;;;3.47;;
76626;SDS011;65519;53.230;10.390;2023-05-07T13:49:16;5.23;;;3.30;;
76626;SDS011;65519;53.230;10.390;2023-05-07T13:51:42;27.95;;;12.35;;
76626;SDS011;65519;53.230;10.390;2023-05-07T13:54:07;7.47;;;3.92;;
76626;SDS011;65519;53.230;10.390;2023-05-07T13:56:32;5.95;;;3.90;;
76626;SDS011;65519;53.230;10.390;2023-05-07T13:58:58;8.20;;;5.07;;
76626;SDS011;65519;53.230;10.390;2023-05-07T14:01:23;6.60;;;3.70;;
76626;SDS011;65519;53.230;10.390;2023-05-07T14:03:49;5.30;;;3.70;;
76626;SDS011;65519;53.230;10.390;2023-05-07T14:06:14;5.38;;;3.35;;
76626;SDS011;65519;53.230;10.390;2023-05-07T14:08:40;6.72;;;3.67;;
76626;SDS011;65519;53.230;10.390;2023-05-07T14:11:05;4.60;;;3.15;;
76626;SDS011;65519;53.230;10.390;2023-05-07T14:13:31;5.63;;;3.25;;
76626;SDS011;65519;53.230;10.390;2023-05-07T14:15:57;4.80;;;3.65;;
76626;SDS011;65519;53.230;10.390;2023-05-07T14:18:23;4.82;;;3.25;;
76626;SDS011;65519;53.230;10.390;2023-05-07T14:20:48;4.97;;;3.17;;
76626;SDS011;65519;53.230;10.390;2023-05-07T14:23:14;4.40;;;3.15;;
76626;SDS011;65519;53.230;10.390;2023-05-07T14:25:40;4.45;;;3.17;;
76626;SDS011;65519;53.230;10.390;2023-05-07T14:28:06;4.75;;;3.22;;
76626;SDS011;65519;53.230;10.390;2023-05-07T14:30:31;4.18;;;2.83;;
76626;SDS011;65519;53.230;10.390;2023-05-07T14:32:57;5.65;;;3.40;;
76626;SDS011;65519;53.230;10.390;2023-05-07T14:35:22;4.13;;;3.10;;
76626;SDS011;65519;53.230;10.390;2023-05-07T14:37:47;5.47;;;3.70;;
76626;SDS011;65519;53.230;10.390;2023-05-07T14:40:13;6.25;;;3.60;;
76626;SDS011;65519;53.230;10.390;2023-05-07T14:42:39;6.20;;;3.70;;
76626;SDS011;65519;53.230;10.390;2023-05-07T14:45:05;4.57;;;3.35;;
76626;SDS011;65519;53.230;10.390;2023-05-07T14:47:31;4.60;;;3.30;;